Yakutat Airport
PAYA : now visible

Airfield :











YOU CAN JOIN US ON...

 
LOGIN :

Register | Disclaimer

   EN    FR    IT 

 









Legend :    VFR   Marginal VFR   IFR   Intensive IFR   Very Intensive IFR
Visi :
Ceiling :
>= 8 km
>= 3000ft
5 to 8 km
1000 to 3000 ft
1500m to 5 km
500 to 1000 ft
800 to 1500m
200 to 500 ft
< 800m
< 200 ft
Symbols :   Thunderstorms  Fog  Heavy snow  Heavy precipitations  Wind > 20 kt







- Airport Elevation : 33 ft


PAYA - Yakutat

CURRENT METAR :
  • 170953Z AUTO 34005KT 10SM OVC080 09/08 A2963 RMK AO2 SLP033 T00940078 TSNO

EXPIRED METARs :
  • 170853Z AUTO 33005KT 7SM OVC080 08/07 A2960 RMK AO2 SLP024 T00780072 401500072 51018 TSNO
  • 170753Z AUTO 34006KT 10SM BKN075 09/08 A2959 RMK AO2 SLP019 T00940078 TSNO

TAF PAYA
Valid from the 17 at 06:00 until the 18 at 06:00 UTC


170524Z 1706/1806 34006KT P6SM FEW100
FM171000 VRB03KT 1SM BR SCT001
FM171700 22005KT P6SM FEW050 BKN100 AMD LTD TO CLD VIS AND WIND
No reported NOTAMs for that airfield.



MET'MAP, your aeronautical weather chart ! - Copyright ORBIFLY December 2007 - Disclaimer

ORBIFLY MET'MAP TEAM :

Programming & Development : Alexandra Zaïnal
Concept & Development : Baudouin d'Aumeries
Co-Development & Prog : Marc-Olivier Méhu
Technical & hardware support : Manuel Goepfert

Contact : metmap@orbifly.com




SOURCES & CREDITS :

   NOAA       Earth
Advisory